Sea Pearl — V7MQ8 — position and weather

sailwx.info

Track history (hours):
 
Tides and Currents Weather Stations Pressure Air Temp Water Temp Dewpoint Dewpoint Depression Visibility Wind Speed Wind Dir Waves Ship Positions

Sea Pearl

Last reported at 2014-Jun-19 00:33 UTC. Time now 2014-Aug-01 15:58 UTC.
Position N 33°05' W 073°54'.
Warning: this ship's position is 43 days out of date.

Length 183 m; draft 11.6 m.

Type: Cargo ship. MMSI: 538002888.

Date/timePositionNaut miles runAvg speedWind from/ knotsBaromVisibWave heightAir tempDewpointWater temp
2014-Jun-19 00:33N 33°05' W 073°54'6011.5
2014-Jun-18 19:20N 34°05' W 073°50'7310.8
2014-Jun-18 12:33N 35°17' W 073°38'1010.1
2014-Jun-18 11:33N 35°27' W 073°36'47 8.6
2014-Jun-18 06:06N 36°14' W 073°34'9410.7
2014-Jun-17 21:16N 37°48' W 073°30'1810.2
2014-Jun-17 19:32N 38°05' W 073°28'2210.3
2014-Jun-17 17:26N 38°27' W 073°26'2210.6
2014-Jun-17 15:23N 38°49' W 073°24'910.5
2014-Jun-17 14:32N 38°58' W 073°23'1110.5
2014-Jun-17 13:30N 39°08' W 073°23'1010.5
2014-Jun-17 12:32N 39°19' W 073°22'1010.2
2014-Jun-17 11:32N 39°29' W 073°21'1010.4
2014-Jun-17 10:33N 39°39' W 073°20'1010.4
2014-Jun-17 09:33N 39°49' W 073°18'1010.4
2014-Jun-17 08:34N 39°60' W 073°18'1111.0
2014-Jun-17 07:33N 40°08' W 073°27'1110.8
2014-Jun-17 06:33N 40°16' W 073°37'1110.6
2014-Jun-17 05:33N 40°24' W 073°46'10 9.8
2014-Jun-17 04:33N 40°30' W 073°56'9 8.6
2014-Jun-17 03:33N 40°37' W 074°03'5 5.2
2014-Jun-17 02:33N 40°40' W 074°09'2 1.4
2014-Jun-17 01:31N 40°41' W 074°08'0 0.0
2014-Jun-17 00:31N 40°41' W 074°08'0 0.0
2014-Jun-16 23:31N 40°41' W 074°08'0 0.0
2014-Jun-16 22:31N 40°41' W 074°08'0 0.0
2014-Jun-16 21:31N 40°41' W 074°08'0 0.0
2014-Jun-16 20:31N 40°41' W 074°08'0 0.0
2014-Jun-16 19:31N 40°41' W 074°08'0 0.0
2014-Jun-16 18:31N 40°41' W 074°08'0 0.0
2014-Jun-16 17:31N 40°41' W 074°08'0 0.0
2014-Jun-16 16:31N 40°41' W 074°08'0 0.0
2014-Jun-16 15:31N 40°41' W 074°08'0 0.0
2014-Jun-16 14:28N 40°41' W 074°08'0 0.0
2014-Jun-16 13:31N 40°41' W 074°08'0 0.0
2014-Jun-16 12:31N 40°41' W 074°08'0 0.0
2014-Jun-16 11:31N 40°41' W 074°08'0 0.0
2014-Jun-16 10:31N 40°41' W 074°08'0 0.0
2014-Jun-16 09:31N 40°41' W 074°08'0 0.0
2014-Jun-16 08:31N 40°41' W 074°08'0 0.0
2014-Jun-16 07:31N 40°41' W 074°08'0 0.0
2014-Jun-16 06:31N 40°41' W 074°08'0 0.0
2014-Jun-16 05:31N 40°41' W 074°08'0 0.0
2014-Jun-16 04:31N 40°41' W 074°08'0 0.0
2014-Jun-16 03:31N 40°41' W 074°08'0 0.0
2014-Jun-16 02:31N 40°41' W 074°08'0 0.0
2014-Jun-16 01:31N 40°41' W 074°08'0 0.0
2014-Jun-16 00:31N 40°41' W 074°08'0 0.0
2014-Jun-15 23:31N 40°41' W 074°08'0 0.0
2014-Jun-15 22:31N 40°41' W 074°08'0 0.0
2014-Jun-15 21:31N 40°41' W 074°08'0 0.0
2014-Jun-15 16:28N 40°41' W 074°08'0 0.0
2014-Jun-15 15:16N 40°41' W 074°08'0 0.0
2014-Jun-15 09:31N 40°41' W 074°08'0 0.0
2014-Jun-15 08:31N 40°41' W 074°08'0 0.0
2014-Jun-15 07:31N 40°41' W 074°08'0 0.0
2014-Jun-15 06:31N 40°41' W 074°08'0 0.0
2014-Jun-15 05:31N 40°41' W 074°08'0 0.0
2014-Jun-15 04:31N 40°41' W 074°08'0 0.0
2014-Jun-15 03:31N 40°41' W 074°08'0 0.0
2014-Jun-15 02:31N 40°41' W 074°08'0 0.0
2014-Jun-15 01:31N 40°41' W 074°08'0 0.0
2014-Jun-15 00:31N 40°41' W 074°08'0 0.0
2014-Jun-14 23:31N 40°41' W 074°08'0 0.0
2014-Jun-14 22:31N 40°41' W 074°08'0 0.0
2014-Jun-14 21:31N 40°41' W 074°08'0 0.0
2014-Jun-14 20:31N 40°41' W 074°08'0 0.0
2014-Jun-14 19:31N 40°41' W 074°08'0 0.0
2014-Jun-14 18:31N 40°41' W 074°08'0 0.0
2014-Jun-14 17:31N 40°41' W 074°08'0 0.0
2014-Jun-14 16:28N 40°41' W 074°08'0 0.0
2014-Jun-14 15:31N 40°41' W 074°08'0 0.0
2014-Jun-14 14:31N 40°41' W 074°08'0 0.0
2014-Jun-14 13:31N 40°41' W 074°08'0 0.0
2014-Jun-14 12:31N 40°41' W 074°08'0 0.0
2014-Jun-14 11:28N 40°41' W 074°08'0 0.0
2014-Jun-14 10:31N 40°41' W 074°08'0 0.0
2014-Jun-14 09:31N 40°41' W 074°08'0 0.0
2014-Jun-14 08:31N 40°41' W 074°08'0 0.0
2014-Jun-14 07:31N 40°41' W 074°08'0 0.0
2014-Jun-14 06:31N 40°41' W 074°08'0 0.0
2014-Jun-14 05:31N 40°41' W 074°08'0 0.0
2014-Jun-14 04:31N 40°41' W 074°08'0 0.0
2014-Jun-14 03:31N 40°41' W 074°08'3 3.2
2014-Jun-14 02:33N 40°39' W 074°06'2 2.3
2014-Jun-14 01:33N 40°41' W 074°04'0 0.0
2014-Jun-14 00:33N 40°41' W 074°04'0 0.0
2014-Jun-13 23:33N 40°41' W 074°04'0 0.0
2014-Jun-13 22:33N 40°41' W 074°04'0 0.0
2014-Jun-13 21:33N 40°41' W 074°04'0 0.0
2014-Jun-13 20:33N 40°41' W 074°04'0 0.0
2014-Jun-13 19:30N 40°41' W 074°04'0 0.0
2014-Jun-13 18:33N 40°41' W 074°04'0 0.0
2014-Jun-13 17:33N 40°41' W 074°04'0 0.0
2014-Jun-13 16:33N 40°41' W 074°04'0 0.0
2014-Jun-13 15:33N 40°41' W 074°04'0 0.0
2014-Jun-13 14:33N 40°41' W 074°04'0 0.0
2014-Jun-13 13:33N 40°41' W 074°04'0 0.0
2014-Jun-13 12:33N 40°41' W 074°04'0 0.0
2014-Jun-13 11:33N 40°41' W 074°04'0 0.0
2014-Jun-13 10:33N 40°41' W 074°04'0 0.0
2014-Jun-13 09:33N 40°41' W 074°04'0 0.0
2014-Jun-13 08:33N 40°41' W 074°04'0 0.0
2014-Jun-13 07:33N 40°41' W 074°04'0 0.0
2014-Jun-13 06:33N 40°41' W 074°04'0 0.0
2014-Jun-13 05:33N 40°41' W 074°04'0 0.0
2014-Jun-13 04:33N 40°41' W 074°04'0 0.0
2014-Jun-13 03:33N 40°41' W 074°04'0 0.0
2014-Jun-13 02:33N 40°41' W 074°04'0 0.0
2014-Jun-13 01:33N 40°41' W 074°04'0 0.0
2014-Jun-13 00:34N 40°41' W 074°04'0 0.0
2014-Jun-12 23:31N 40°41' W 074°04'0 0.0
2014-Jun-12 22:33N 40°41' W 074°04'0 0.0
2014-Jun-12 21:33N 40°41' W 074°04'0 0.0
2014-Jun-12 20:33N 40°41' W 074°04'0 0.0
2014-Jun-12 19:33N 40°41' W 074°04'0 0.0
2014-Jun-12 18:33N 40°41' W 074°04'0 0.0
2014-Jun-12 17:33N 40°41' W 074°04'0 0.0
2014-Jun-12 16:33N 40°41' W 074°04'0 0.0
2014-Jun-12 15:33N 40°41' W 074°04'0 0.0
2014-Jun-12 14:33N 40°41' W 074°04'0 0.0
2014-Jun-12 13:33N 40°41' W 074°04'0 0.0
2014-Jun-12 12:33N 40°41' W 074°04'0 0.0
2014-Jun-12 11:33N 40°41' W 074°04'0 0.0
2014-Jun-12 10:33N 40°41' W 074°04'0 0.0
2014-Jun-12 09:33N 40°41' W 074°04'0 0.0
2014-Jun-12 08:33N 40°41' W 074°04'0 0.0
2014-Jun-12 07:33N 40°41' W 074°04'0 0.0
2014-Jun-12 06:33N 40°41' W 074°04'0 0.0
2014-Jun-12 05:33N 40°41' W 074°04'0 0.0
2014-Jun-12 04:33N 40°41' W 074°04'0 0.0
2014-Jun-12 03:33N 40°41' W 074°04'0 0.0
2014-Jun-12 02:33N 40°41' W 074°04'0 0.0
2014-Jun-12 01:33N 40°41' W 074°04'0 0.0
2014-Jun-12 00:33N 40°41' W 074°04'0 0.0
2014-Jun-11 23:33N 40°41' W 074°04'0 0.0
2014-Jun-11 22:33N 40°41' W 074°04'0 0.0
2014-Jun-11 21:33N 40°41' W 074°04'0 0.0
2014-Jun-11 20:33N 40°41' W 074°04'0 0.0
2014-Jun-11 19:33N 40°41' W 074°04'0 0.0
2014-Jun-11 18:33N 40°41' W 074°04'0 0.0
2014-Jun-11 17:33N 40°41' W 074°04'0 0.0
2014-Jun-11 16:33N 40°41' W 074°04'0 0.0
2014-Jun-11 15:33N 40°41' W 074°04'0 0.0
2014-Jun-11 14:33N 40°41' W 074°04'0 0.0
2014-Jun-11 13:33N 40°41' W 074°04'1 0.9
2014-Jun-11 12:33N 40°40' W 074°04'2 1.9
2014-Jun-11 11:31N 40°38' W 074°04'0 0.1
2014-Jun-11 10:31N 40°38' W 074°04'0 0.1
2014-Jun-11 09:31N 40°38' W 074°04'0 0.1
2014-Jun-11 08:31N 40°38' W 074°04'0 0.0
2014-Jun-11 07:28N 40°38' W 074°04'0 0.0
2014-Jun-11 06:31N 40°38' W 074°04'0 0.0
2014-Jun-11 05:31N 40°38' W 074°04'0 0.0
2014-Jun-11 04:31N 40°38' W 074°04'0 0.0
2014-Jun-11 03:25N 40°38' W 074°04'0 0.0
2014-Jun-11 02:31N 40°38' W 074°04'0 0.0
2014-Jun-11 01:31N 40°38' W 074°04'0 0.1
2014-Jun-11 00:31N 40°38' W 074°04'0 0.1
2014-Jun-10 23:31N 40°38' W 074°04'0 0.0
2014-Jun-10 22:31N 40°38' W 074°04'0 0.0
2014-Jun-10 21:28N 40°38' W 074°04'1 0.8
2014-Jun-10 20:33N 40°38' W 074°04'1110.9
2014-Jun-10 19:33N 40°29' W 073°55'9 8.5
2014-Jun-10 18:33N 40°23' W 073°47'8 8.1
2014-Jun-10 17:33N 40°15' W 073°46'1210.5
2014-Jun-10 16:25N 40°03' W 073°44'1010.3
2014-Jun-10 15:28N 39°53' W 073°43'10 9.7
2014-Jun-10 14:29N 39°44' W 073°43'910.2
2014-Jun-10 13:33N 39°35' W 073°45'1110.3
2014-Jun-10 12:32N 39°25' W 073°49'78 2.6
2014-Jun-09 06:26N 39°48' W 075°26'0 0.0
2014-Jun-09 04:11N 39°48' W 075°26'0 0.0
2014-Jun-09 02:32N 39°48' W 075°26'0 0.0
2014-Jun-09 01:32N 39°48' W 075°26'  
Track history (hours):
 
Tides and Currents Weather Stations Pressure Air Temp Water Temp Dewpoint Dewpoint Depression Visibility Wind Speed Wind Dir Waves Ship Positions

Sea Pearl

Last reported at 2014-Jun-19 00:33 UTC. Time now 2014-Aug-01 15:58 UTC.
Position N 33°05' W 073°54'.
Warning: this ship's position is 43 days out of date.

Length 183 m; draft 11.6 m.

Type: Cargo ship. MMSI: 538002888.

Date/timePositionNaut miles runAvg speedWind from/ knotsBaromVisibWave heightAir tempDewpointWater temp
2014-Jun-19 00:33N 33°05' W 073°54'6011.5
2014-Jun-18 19:20N 34°05' W 073°50'7310.8
2014-Jun-18 12:33N 35°17' W 073°38'1010.1
2014-Jun-18 11:33N 35°27' W 073°36'47 8.6
2014-Jun-18 06:06N 36°14' W 073°34'9410.7
2014-Jun-17 21:16N 37°48' W 073°30'1810.2
2014-Jun-17 19:32N 38°05' W 073°28'2210.3
2014-Jun-17 17:26N 38°27' W 073°26'2210.6
2014-Jun-17 15:23N 38°49' W 073°24'910.5
2014-Jun-17 14:32N 38°58' W 073°23'1110.5
2014-Jun-17 13:30N 39°08' W 073°23'1010.5
2014-Jun-17 12:32N 39°19' W 073°22'1010.2
2014-Jun-17 11:32N 39°29' W 073°21'1010.4
2014-Jun-17 10:33N 39°39' W 073°20'1010.4
2014-Jun-17 09:33N 39°49' W 073°18'1010.4
2014-Jun-17 08:34N 39°60' W 073°18'1111.0
2014-Jun-17 07:33N 40°08' W 073°27'1110.8
2014-Jun-17 06:33N 40°16' W 073°37'1110.6
2014-Jun-17 05:33N 40°24' W 073°46'10 9.8
2014-Jun-17 04:33N 40°30' W 073°56'9 8.6
2014-Jun-17 03:33N 40°37' W 074°03'5 5.2
2014-Jun-17 02:33N 40°40' W 074°09'2 1.4
2014-Jun-17 01:31N 40°41' W 074°08'0 0.0
2014-Jun-17 00:31N 40°41' W 074°08'0 0.0
2014-Jun-16 23:31N 40°41' W 074°08'0 0.0
2014-Jun-16 22:31N 40°41' W 074°08'0 0.0
2014-Jun-16 21:31N 40°41' W 074°08'0 0.0
2014-Jun-16 20:31N 40°41' W 074°08'0 0.0
2014-Jun-16 19:31N 40°41' W 074°08'0 0.0
2014-Jun-16 18:31N 40°41' W 074°08'0 0.0
2014-Jun-16 17:31N 40°41' W 074°08'0 0.0
2014-Jun-16 16:31N 40°41' W 074°08'0 0.0
2014-Jun-16 15:31N 40°41' W 074°08'0 0.0
2014-Jun-16 14:28N 40°41' W 074°08'0 0.0
2014-Jun-16 13:31N 40°41' W 074°08'0 0.0
2014-Jun-16 12:31N 40°41' W 074°08'0 0.0
2014-Jun-16 11:31N 40°41' W 074°08'0 0.0
2014-Jun-16 10:31N 40°41' W 074°08'0 0.0
2014-Jun-16 09:31N 40°41' W 074°08'0 0.0
2014-Jun-16 08:31N 40°41' W 074°08'0 0.0
2014-Jun-16 07:31N 40°41' W 074°08'0 0.0
2014-Jun-16 06:31N 40°41' W 074°08'0 0.0
2014-Jun-16 05:31N 40°41' W 074°08'0 0.0
2014-Jun-16 04:31N 40°41' W 074°08'0 0.0
2014-Jun-16 03:31N 40°41' W 074°08'0 0.0
2014-Jun-16 02:31N 40°41' W 074°08'0 0.0
2014-Jun-16 01:31N 40°41' W 074°08'0 0.0
2014-Jun-16 00:31N 40°41' W 074°08'0 0.0
2014-Jun-15 23:31N 40°41' W 074°08'0 0.0
2014-Jun-15 22:31N 40°41' W 074°08'0 0.0
2014-Jun-15 21:31N 40°41' W 074°08'0 0.0
2014-Jun-15 16:28N 40°41' W 074°08'0 0.0
2014-Jun-15 15:16N 40°41' W 074°08'0 0.0
2014-Jun-15 09:31N 40°41' W 074°08'0 0.0
2014-Jun-15 08:31N 40°41' W 074°08'0 0.0
2014-Jun-15 07:31N 40°41' W 074°08'0 0.0
2014-Jun-15 06:31N 40°41' W 074°08'0 0.0
2014-Jun-15 05:31N 40°41' W 074°08'0 0.0
2014-Jun-15 04:31N 40°41' W 074°08'0 0.0
2014-Jun-15 03:31N 40°41' W 074°08'0 0.0
2014-Jun-15 02:31N 40°41' W 074°08'0 0.0
2014-Jun-15 01:31N 40°41' W 074°08'0 0.0
2014-Jun-15 00:31N 40°41' W 074°08'0 0.0
2014-Jun-14 23:31N 40°41' W 074°08'0 0.0
2014-Jun-14 22:31N 40°41' W 074°08'0 0.0
2014-Jun-14 21:31N 40°41' W 074°08'0 0.0
2014-Jun-14 20:31N 40°41' W 074°08'0 0.0
2014-Jun-14 19:31N 40°41' W 074°08'0 0.0
2014-Jun-14 18:31N 40°41' W 074°08'0 0.0
2014-Jun-14 17:31N 40°41' W 074°08'0 0.0
2014-Jun-14 16:28N 40°41' W 074°08'0 0.0
2014-Jun-14 15:31N 40°41' W 074°08'0 0.0
2014-Jun-14 14:31N 40°41' W 074°08'0 0.0
2014-Jun-14 13:31N 40°41' W 074°08'0 0.0
2014-Jun-14 12:31N 40°41' W 074°08'0 0.0
2014-Jun-14 11:28N 40°41' W 074°08'0 0.0
2014-Jun-14 10:31N 40°41' W 074°08'0 0.0
2014-Jun-14 09:31N 40°41' W 074°08'0 0.0
2014-Jun-14 08:31N 40°41' W 074°08'0 0.0
2014-Jun-14 07:31N 40°41' W 074°08'0 0.0
2014-Jun-14 06:31N 40°41' W 074°08'0 0.0
2014-Jun-14 05:31N 40°41' W 074°08'0 0.0
2014-Jun-14 04:31N 40°41' W 074°08'0 0.0
2014-Jun-14 03:31N 40°41' W 074°08'3 3.2
2014-Jun-14 02:33N 40°39' W 074°06'2 2.3
2014-Jun-14 01:33N 40°41' W 074°04'0 0.0
2014-Jun-14 00:33N 40°41' W 074°04'0 0.0
2014-Jun-13 23:33N 40°41' W 074°04'0 0.0
2014-Jun-13 22:33N 40°41' W 074°04'0 0.0
2014-Jun-13 21:33N 40°41' W 074°04'0 0.0
2014-Jun-13 20:33N 40°41' W 074°04'0 0.0
2014-Jun-13 19:30N 40°41' W 074°04'0 0.0
2014-Jun-13 18:33N 40°41' W 074°04'0 0.0
2014-Jun-13 17:33N 40°41' W 074°04'0 0.0
2014-Jun-13 16:33N 40°41' W 074°04'0 0.0
2014-Jun-13 15:33N 40°41' W 074°04'0 0.0
2014-Jun-13 14:33N 40°41' W 074°04'0 0.0
2014-Jun-13 13:33N 40°41' W 074°04'0 0.0
2014-Jun-13 12:33N 40°41' W 074°04'0 0.0
2014-Jun-13 11:33N 40°41' W 074°04'0 0.0
2014-Jun-13 10:33N 40°41' W 074°04'0 0.0
2014-Jun-13 09:33N 40°41' W 074°04'0 0.0
2014-Jun-13 08:33N 40°41' W 074°04'0 0.0
2014-Jun-13 07:33N 40°41' W 074°04'0 0.0
2014-Jun-13 06:33N 40°41' W 074°04'0 0.0
2014-Jun-13 05:33N 40°41' W 074°04'0 0.0
2014-Jun-13 04:33N 40°41' W 074°04'0 0.0
2014-Jun-13 03:33N 40°41' W 074°04'0 0.0
2014-Jun-13 02:33N 40°41' W 074°04'0 0.0
2014-Jun-13 01:33N 40°41' W 074°04'0 0.0
2014-Jun-13 00:34N 40°41' W 074°04'0 0.0
2014-Jun-12 23:31N 40°41' W 074°04'0 0.0
2014-Jun-12 22:33N 40°41' W 074°04'0 0.0
2014-Jun-12 21:33N 40°41' W 074°04'0 0.0
2014-Jun-12 20:33N 40°41' W 074°04'0 0.0
2014-Jun-12 19:33N 40°41' W 074°04'0 0.0
2014-Jun-12 18:33N 40°41' W 074°04'0 0.0
2014-Jun-12 17:33N 40°41' W 074°04'0 0.0
2014-Jun-12 16:33N 40°41' W 074°04'0 0.0
2014-Jun-12 15:33N 40°41' W 074°04'0 0.0
2014-Jun-12 14:33N 40°41' W 074°04'0 0.0
2014-Jun-12 13:33N 40°41' W 074°04'0 0.0
2014-Jun-12 12:33N 40°41' W 074°04'0 0.0
2014-Jun-12 11:33N 40°41' W 074°04'0 0.0
2014-Jun-12 10:33N 40°41' W 074°04'0 0.0
2014-Jun-12 09:33N 40°41' W 074°04'0 0.0
2014-Jun-12 08:33N 40°41' W 074°04'0 0.0
2014-Jun-12 07:33N 40°41' W 074°04'0 0.0
2014-Jun-12 06:33N 40°41' W 074°04'0 0.0
2014-Jun-12 05:33N 40°41' W 074°04'0 0.0
2014-Jun-12 04:33N 40°41' W 074°04'0 0.0
2014-Jun-12 03:33N 40°41' W 074°04'0 0.0
2014-Jun-12 02:33N 40°41' W 074°04'0 0.0
2014-Jun-12 01:33N 40°41' W 074°04'0 0.0
2014-Jun-12 00:33N 40°41' W 074°04'0 0.0
2014-Jun-11 23:33N 40°41' W 074°04'0 0.0
2014-Jun-11 22:33N 40°41' W 074°04'0 0.0
2014-Jun-11 21:33N 40°41' W 074°04'0 0.0
2014-Jun-11 20:33N 40°41' W 074°04'0 0.0
2014-Jun-11 19:33N 40°41' W 074°04'0 0.0
2014-Jun-11 18:33N 40°41' W 074°04'0 0.0
2014-Jun-11 17:33N 40°41' W 074°04'0 0.0
2014-Jun-11 16:33N 40°41' W 074°04'0 0.0
2014-Jun-11 15:33N 40°41' W 074°04'0 0.0
2014-Jun-11 14:33N 40°41' W 074°04'0 0.0
2014-Jun-11 13:33N 40°41' W 074°04'1 0.9
2014-Jun-11 12:33N 40°40' W 074°04'2 1.9
2014-Jun-11 11:31N 40°38' W 074°04'0 0.1
2014-Jun-11 10:31N 40°38' W 074°04'0 0.1
2014-Jun-11 09:31N 40°38' W 074°04'0 0.1
2014-Jun-11 08:31N 40°38' W 074°04'0 0.0
2014-Jun-11 07:28N 40°38' W 074°04'0 0.0
2014-Jun-11 06:31N 40°38' W 074°04'0 0.0
2014-Jun-11 05:31N 40°38' W 074°04'0 0.0
2014-Jun-11 04:31N 40°38' W 074°04'0 0.0
2014-Jun-11 03:25N 40°38' W 074°04'0 0.0
2014-Jun-11 02:31N 40°38' W 074°04'0 0.0
2014-Jun-11 01:31N 40°38' W 074°04'0 0.1
2014-Jun-11 00:31N 40°38' W 074°04'0 0.1
2014-Jun-10 23:31N 40°38' W 074°04'0 0.0
2014-Jun-10 22:31N 40°38' W 074°04'0 0.0
2014-Jun-10 21:28N 40°38' W 074°04'1 0.8
2014-Jun-10 20:33N 40°38' W 074°04'1110.9
2014-Jun-10 19:33N 40°29' W 073°55'9 8.5
2014-Jun-10 18:33N 40°23' W 073°47'8 8.1
2014-Jun-10 17:33N 40°15' W 073°46'1210.5
2014-Jun-10 16:25N 40°03' W 073°44'1010.3
2014-Jun-10 15:28N 39°53' W 073°43'10 9.7
2014-Jun-10 14:29N 39°44' W 073°43'910.2
2014-Jun-10 13:33N 39°35' W 073°45'1110.3
2014-Jun-10 12:32N 39°25' W 073°49'78 2.6
2014-Jun-09 06:26N 39°48' W 075°26'0 0.0
2014-Jun-09 04:11N 39°48' W 075°26'0 0.0
2014-Jun-09 02:32N 39°48' W 075°26'0 0.0
2014-Jun-09 01:32N 39°48' W 075°26'  

Dump ship's entire track history